sensor_id;sensor_type;location;lat;lon;timestamp;pressure;altitude;pressure_sealevel;temperature;humidity
44663;BME280;30381;52.754;18.258;2023-04-20T00:00:27;101165.44;;;5.12;100.00
44663;BME280;30381;52.754;18.258;2023-04-20T00:04:14;101161.03;;;5.03;100.00
44663;BME280;30381;52.754;18.258;2023-04-20T00:13:16;101161.34;;;4.95;100.00
44663;BME280;30381;52.754;18.258;2023-04-20T00:20:10;101161.55;;;4.96;100.00
44663;BME280;30381;52.754;18.258;2023-04-20T00:29:37;101171.69;;;5.07;100.00
44663;BME280;30381;52.754;18.258;2023-04-20T00:32:29;101170.36;;;5.13;100.00
44663;BME280;30381;52.754;18.258;2023-04-20T00:35:23;101168.96;;;5.20;100.00
44663;BME280;30381;52.754;18.258;2023-04-20T00:38:26;101162.31;;;5.26;100.00
44663;BME280;30381;52.754;18.258;2023-04-20T00:41:12;101162.71;;;5.32;100.00
44663;BME280;30381;52.754;18.258;2023-04-20T00:47:30;101168.44;;;5.49;100.00
44663;BME280;30381;52.754;18.258;2023-04-20T00:50:57;101167.01;;;5.62;100.00
44663;BME280;30381;52.754;18.258;2023-04-20T00:56:32;101168.09;;;5.79;100.00
44663;BME280;30381;52.754;18.258;2023-04-20T01:00:00;101168.36;;;5.91;100.00
44663;BME280;30381;52.754;18.258;2023-04-20T01:06:37;101159.92;;;6.05;100.00
44663;BME280;30381;52.754;18.258;2023-04-20T01:09:23;101166.36;;;6.11;100.00
44663;BME280;30381;52.754;18.258;2023-04-20T01:12:44;101169.86;;;6.17;100.00
44663;BME280;30381;52.754;18.258;2023-04-20T01:15:32;101166.59;;;6.23;100.00
44663;BME280;30381;52.754;18.258;2023-04-20T01:21:55;101162.62;;;6.32;100.00
44663;BME280;30381;52.754;18.258;2023-04-20T01:25:06;101159.41;;;6.34;100.00
44663;BME280;30381;52.754;18.258;2023-04-20T01:28:14;101164.00;;;6.39;100.00
44663;BME280;30381;52.754;18.258;2023-04-20T01:31:59;101162.66;;;6.44;100.00
44663;BME280;30381;52.754;18.258;2023-04-20T01:35:18;101158.77;;;6.46;100.00
44663;BME280;30381;52.754;18.258;2023-04-20T01:38:46;101150.63;;;6.48;100.00
44663;BME280;30381;52.754;18.258;2023-04-20T01:42:12;101152.67;;;6.53;100.00
44663;BME280;30381;52.754;18.258;2023-04-20T01:45:19;101154.45;;;6.56;100.00
44663;BME280;30381;52.754;18.258;2023-04-20T01:48:05;101152.34;;;6.58;100.00
44663;BME280;30381;52.754;18.258;2023-04-20T01:51:51;101150.39;;;6.60;100.00
44663;BME280;30381;52.754;18.258;2023-04-20T01:54:59;101154.19;;;6.63;100.00
44663;BME280;30381;52.754;18.258;2023-04-20T01:57:47;101152.26;;;6.64;100.00
44663;BME280;30381;52.754;18.258;2023-04-20T02:00:41;101149.67;;;6.66;100.00
44663;BME280;30381;52.754;18.258;2023-04-20T02:03:09;101149.05;;;6.68;100.00
44663;BME280;30381;52.754;18.258;2023-04-20T02:05:36;101153.40;;;6.69;100.00
44663;BME280;30381;52.754;18.258;2023-04-20T02:08:04;101151.95;;;6.69;100.00
44663;BME280;30381;52.754;18.258;2023-04-20T02:10:31;101152.64;;;6.70;100.00
44663;BME280;30381;52.754;18.258;2023-04-20T02:12:58;101154.50;;;6.73;100.00
44663;BME280;30381;52.754;18.258;2023-04-20T02:15:24;101154.71;;;6.74;100.00
44663;BME280;30381;52.754;18.258;2023-04-20T02:17:51;101152.91;;;6.75;100.00
44663;BME280;30381;52.754;18.258;2023-04-20T02:20:17;101151.89;;;6.76;100.00
44663;BME280;30381;52.754;18.258;2023-04-20T02:22:46;101147.18;;;6.77;100.00
44663;BME280;30381;52.754;18.258;2023-04-20T02:25:13;101152.45;;;6.77;100.00
44663;BME280;30381;52.754;18.258;2023-04-20T02:27:40;101153.41;;;6.78;100.00
44663;BME280;30381;52.754;18.258;2023-04-20T02:30:09;101151.86;;;6.79;100.00
44663;BME280;30381;52.754;18.258;2023-04-20T02:32:43;101151.88;;;6.82;100.00
44663;BME280;30381;52.754;18.258;2023-04-20T02:35:52;101151.59;;;6.83;100.00
44663;BME280;30381;52.754;18.258;2023-04-20T02:38:39;101149.57;;;6.84;100.00
44663;BME280;30381;52.754;18.258;2023-04-20T02:41:05;101152.64;;;6.85;100.00
44663;BME280;30381;52.754;18.258;2023-04-20T02:43:54;101159.54;;;6.85;100.00
44663;BME280;30381;52.754;18.258;2023-04-20T02:46:21;101156.47;;;6.84;100.00
44663;BME280;30381;52.754;18.258;2023-04-20T02:49:08;101157.08;;;6.83;100.00
44663;BME280;30381;52.754;18.258;2023-04-20T02:52:01;101159.73;;;6.81;100.00
44663;BME280;30381;52.754;18.258;2023-04-20T02:54:29;101161.32;;;6.78;100.00
44663;BME280;30381;52.754;18.258;2023-04-20T02:56:57;101160.14;;;6.75;100.00
44663;BME280;30381;52.754;18.258;2023-04-20T02:59:23;101162.14;;;6.70;100.00
44663;BME280;30381;52.754;18.258;2023-04-20T03:01:50;101155.45;;;6.65;100.00
44663;BME280;30381;52.754;18.258;2023-04-20T03:04:18;101157.73;;;6.60;100.00
44663;BME280;30381;52.754;18.258;2023-04-20T03:07:10;101156.64;;;6.56;100.00
44663;BME280;30381;52.754;18.258;2023-04-20T03:10:03;101157.63;;;6.51;100.00
44663;BME280;30381;52.754;18.258;2023-04-20T03:12:31;101156.59;;;6.50;100.00
44663;BME280;30381;52.754;18.258;2023-04-20T03:15:06;101152.60;;;6.47;100.00
44663;BME280;30381;52.754;18.258;2023-04-20T03:17:52;101154.45;;;6.45;100.00
44663;BME280;30381;52.754;18.258;2023-04-20T03:20:20;101158.08;;;6.43;100.00
44663;BME280;30381;52.754;18.258;2023-04-20T03:22:47;101158.68;;;6.41;100.00
44663;BME280;30381;52.754;18.258;2023-04-20T03:25:16;101159.32;;;6.38;100.00
44663;BME280;30381;52.754;18.258;2023-04-20T03:27:47;101160.39;;;6.34;100.00
44663;BME280;30381;52.754;18.258;2023-04-20T03:30:15;101161.08;;;6.30;100.00
44663;BME280;30381;52.754;18.258;2023-04-20T03:32:45;101162.97;;;6.25;100.00
44663;BME280;30381;52.754;18.258;2023-04-20T03:35:16;101161.28;;;6.20;100.00
44663;BME280;30381;52.754;18.258;2023-04-20T03:37:45;101165.66;;;6.15;100.00
44663;BME280;30381;52.754;18.258;2023-04-20T03:40:13;101165.20;;;6.11;100.00
44663;BME280;30381;52.754;18.258;2023-04-20T03:42:40;101168.21;;;6.05;100.00
44663;BME280;30381;52.754;18.258;2023-04-20T03:45:09;101173.85;;;6.01;100.00
44663;BME280;30381;52.754;18.258;2023-04-20T03:47:45;101173.34;;;5.98;100.00
44663;BME280;30381;52.754;18.258;2023-04-20T03:50:12;101171.31;;;5.96;100.00
44663;BME280;30381;52.754;18.258;2023-04-20T03:52:39;101171.71;;;5.96;100.00
44663;BME280;30381;52.754;18.258;2023-04-20T03:55:21;101171.18;;;5.96;100.00
44663;BME280;30381;52.754;18.258;2023-04-20T03:57:47;101173.17;;;5.97;100.00
44663;BME280;30381;52.754;18.258;2023-04-20T04:00:14;101174.23;;;6.00;100.00
44663;BME280;30381;52.754;18.258;2023-04-20T04:02:41;101172.86;;;6.02;100.00
44663;BME280;30381;52.754;18.258;2023-04-20T04:05:09;101174.09;;;6.07;100.00
44663;BME280;30381;52.754;18.258;2023-04-20T04:07:36;101178.81;;;6.13;100.00
44663;BME280;30381;52.754;18.258;2023-04-20T04:10:02;101177.01;;;6.19;100.00
44663;BME280;30381;52.754;18.258;2023-04-20T04:12:30;101179.87;;;6.24;100.00
44663;BME280;30381;52.754;18.258;2023-04-20T04:14:56;101178.15;;;6.31;100.00
44663;BME280;30381;52.754;18.258;2023-04-20T04:17:23;101181.45;;;6.37;100.00
44663;BME280;30381;52.754;18.258;2023-04-20T04:19:49;101179.08;;;6.44;100.00
44663;BME280;30381;52.754;18.258;2023-04-20T04:22:16;101182.27;;;6.63;100.00
44663;BME280;30381;52.754;18.258;2023-04-20T04:24:43;101179.71;;;7.15;100.00
44663;BME280;30381;52.754;18.258;2023-04-20T04:27:11;101176.94;;;7.70;100.00
44663;BME280;30381;52.754;18.258;2023-04-20T04:29:40;101180.27;;;8.04;100.00
44663;BME280;30381;52.754;18.258;2023-04-20T04:32:18;101175.83;;;8.41;100.00
44663;BME280;30381;52.754;18.258;2023-04-20T04:34:47;101178.10;;;8.62;100.00
44663;BME280;30381;52.754;18.258;2023-04-20T04:37:17;101178.09;;;8.69;100.00
44663;BME280;30381;52.754;18.258;2023-04-20T04:39:50;101180.34;;;8.67;100.00
44663;BME280;30381;52.754;18.258;2023-04-20T04:42:23;101180.59;;;8.65;100.00
44663;BME280;30381;52.754;18.258;2023-04-20T04:47:55;101184.77;;;8.92;100.00
44663;BME280;30381;52.754;18.258;2023-04-20T04:50:27;101186.56;;;8.92;100.00
44663;BME280;30381;52.754;18.258;2023-04-20T04:53:23;101194.32;;;8.89;100.00
44663;BME280;30381;52.754;18.258;2023-04-20T04:55:54;101194.20;;;8.89;100.00
44663;BME280;30381;52.754;18.258;2023-04-20T04:58:21;101192.86;;;8.92;100.00
44663;BME280;30381;52.754;18.258;2023-04-20T05:00:52;101194.71;;;9.10;100.00
44663;BME280;30381;52.754;18.258;2023-04-20T05:03:27;101198.20;;;9.34;100.00
44663;BME280;30381;52.754;18.258;2023-04-20T05:34:05;101196.73;;;14.77;100.00
44663;BME280;30381;52.754;18.258;2023-04-20T05:57:10;101215.15;;;13.79;100.00
44663;BME280;30381;52.754;18.258;2023-04-20T05:59:40;101215.31;;;13.79;100.00
44663;BME280;30381;52.754;18.258;2023-04-20T06:02:30;101217.04;;;14.19;100.00
44663;BME280;30381;52.754;18.258;2023-04-20T06:05:49;101220.39;;;14.75;100.00
44663;BME280;30381;52.754;18.258;2023-04-20T06:11:58;101231.94;;;15.61;100.00
44663;BME280;30381;52.754;18.258;2023-04-20T06:20:24;101238.23;;;15.18;100.00
44663;BME280;30381;52.754;18.258;2023-04-20T06:23:25;101241.74;;;14.38;100.00
44663;BME280;30381;52.754;18.258;2023-04-20T06:25:52;101242.71;;;13.80;100.00
44663;BME280;30381;52.754;18.258;2023-04-20T06:45:21;101242.35;;;12.44;100.00
44663;BME280;30381;52.754;18.258;2023-04-20T06:48:00;101245.14;;;12.56;100.00
44663;BME280;30381;52.754;18.258;2023-04-20T06:50:41;101244.17;;;12.64;100.00
44663;BME280;30381;52.754;18.258;2023-04-20T06:53:10;101245.41;;;12.69;100.00
44663;BME280;30381;52.754;18.258;2023-04-20T06:55:37;101247.65;;;12.75;100.00
44663;BME280;30381;52.754;18.258;2023-04-20T06:58:06;101251.42;;;12.85;100.00
44663;BME280;30381;52.754;18.258;2023-04-20T07:00:33;101253.80;;;13.03;100.00
44663;BME280;30381;52.754;18.258;2023-04-20T07:03:32;101253.77;;;13.14;100.00
44663;BME280;30381;52.754;18.258;2023-04-20T07:12:44;101258.39;;;12.75;100.00
44663;BME280;30381;52.754;18.258;2023-04-20T07:15:54;101256.81;;;12.61;100.00
44663;BME280;30381;52.754;18.258;2023-04-20T07:21:54;101265.62;;;12.48;100.00
44663;BME280;30381;52.754;18.258;2023-04-20T07:24:26;101268.45;;;12.44;100.00
44663;BME280;30381;52.754;18.258;2023-04-20T07:32:12;101271.69;;;12.50;100.00
44663;BME280;30381;52.754;18.258;2023-04-20T07:34:45;101271.37;;;12.60;100.00
44663;BME280;30381;52.754;18.258;2023-04-20T07:37:28;101274.21;;;12.74;100.00
44663;BME280;30381;52.754;18.258;2023-04-20T07:40:26;101277.05;;;12.96;100.00
44663;BME280;30381;52.754;18.258;2023-04-20T08:39:35;101291.30;;;17.32;100.00
44663;BME280;30381;52.754;18.258;2023-04-20T08:48:24;101291.11;;;17.44;100.00
44663;BME280;30381;52.754;18.258;2023-04-20T08:54:40;101293.27;;;17.21;100.00
44663;BME280;30381;52.754;18.258;2023-04-20T08:57:10;101296.15;;;17.19;100.00
44663;BME280;30381;52.754;18.258;2023-04-20T09:00:16;101296.95;;;17.11;100.00
44663;BME280;30381;52.754;18.258;2023-04-20T09:03:04;101296.52;;;17.03;100.00
44663;BME280;30381;52.754;18.258;2023-04-20T09:06:19;101294.97;;;16.92;100.00
44663;BME280;30381;52.754;18.258;2023-04-20T09:09:10;101292.92;;;17.04;100.00
44663;BME280;30381;52.754;18.258;2023-04-20T09:15:04;101296.64;;;17.72;100.00
44663;BME280;30381;52.754;18.258;2023-04-20T09:17:38;101294.20;;;17.95;100.00
44663;BME280;30381;52.754;18.258;2023-04-20T09:20:25;101292.47;;;18.17;100.00
44663;BME280;30381;52.754;18.258;2023-04-20T09:23:22;101291.91;;;18.31;100.00
44663;BME280;30381;52.754;18.258;2023-04-20T09:26:17;101292.23;;;18.34;100.00
44663;BME280;30381;52.754;18.258;2023-04-20T09:29:23;101291.80;;;18.30;100.00
44663;BME280;30381;52.754;18.258;2023-04-20T09:32:23;101293.79;;;18.42;100.00
44663;BME280;30381;52.754;18.258;2023-04-20T09:38:07;101294.33;;;18.68;100.00
44663;BME280;30381;52.754;18.258;2023-04-20T09:41:13;101290.95;;;18.69;100.00
44663;BME280;30381;52.754;18.258;2023-04-20T09:44:11;101297.14;;;18.73;100.00
44663;BME280;30381;52.754;18.258;2023-04-20T09:47:21;101302.73;;;18.48;100.00
44663;BME280;30381;52.754;18.258;2023-04-20T09:51:01;101301.02;;;18.22;100.00
44663;BME280;30381;52.754;18.258;2023-04-20T09:54:35;101298.04;;;18.11;100.00
44663;BME280;30381;52.754;18.258;2023-04-20T09:57:47;101302.15;;;18.10;100.00
44663;BME280;30381;52.754;18.258;2023-04-20T10:00:55;101303.90;;;18.12;100.00
44663;BME280;30381;52.754;18.258;2023-04-20T10:03:27;101301.41;;;18.23;100.00
44663;BME280;30381;52.754;18.258;2023-04-20T10:06:51;101296.77;;;18.55;100.00
44663;BME280;30381;52.754;18.258;2023-04-20T10:09:41;101292.85;;;18.81;100.00
44663;BME280;30381;52.754;18.258;2023-04-20T10:12:31;101297.19;;;18.92;100.00
44663;BME280;30381;52.754;18.258;2023-04-20T10:15:20;101292.90;;;18.95;100.00
44663;BME280;30381;52.754;18.258;2023-04-20T10:17:58;101287.88;;;18.96;100.00
44663;BME280;30381;52.754;18.258;2023-04-20T10:21:06;101288.23;;;18.99;100.00
44663;BME280;30381;52.754;18.258;2023-04-20T10:23:54;101292.08;;;18.99;100.00
44663;BME280;30381;52.754;18.258;2023-04-20T10:26:49;101288.19;;;18.95;100.00
44663;BME280;30381;52.754;18.258;2023-04-20T10:29:36;101287.09;;;19.08;100.00
44663;BME280;30381;52.754;18.258;2023-04-20T10:32:22;101280.66;;;19.19;100.00
44663;BME280;30381;52.754;18.258;2023-04-20T10:35:13;101283.52;;;19.44;100.00
44663;BME280;30381;52.754;18.258;2023-04-20T10:38:09;101282.02;;;19.84;100.00
44663;BME280;30381;52.754;18.258;2023-04-20T10:41:32;101279.71;;;20.16;100.00
44663;BME280;30381;52.754;18.258;2023-04-20T10:45:07;101277.83;;;20.26;100.00
44663;BME280;30381;52.754;18.258;2023-04-20T10:48:19;101272.14;;;20.23;100.00
44663;BME280;30381;52.754;18.258;2023-04-20T10:51:29;101267.36;;;20.33;100.00
44663;BME280;30381;52.754;18.258;2023-04-20T10:54:51;101262.77;;;20.21;100.00
44663;BME280;30381;52.754;18.258;2023-04-20T10:58:23;101262.72;;;20.55;100.00
44663;BME280;30381;52.754;18.258;2023-04-20T11:02:10;101258.47;;;20.71;100.00
44663;BME280;30381;52.754;18.258;2023-04-20T11:08:33;101250.55;;;20.66;100.00
44663;BME280;30381;52.754;18.258;2023-04-20T11:11:02;101244.30;;;20.58;99.96
44663;BME280;30381;52.754;18.258;2023-04-20T11:13:29;101239.94;;;20.53;100.00
44663;BME280;30381;52.754;18.258;2023-04-20T11:15:55;101244.14;;;20.33;100.00
44663;BME280;30381;52.754;18.258;2023-04-20T11:19:00;101250.55;;;20.08;100.00
44663;BME280;30381;52.754;18.258;2023-04-20T11:21:55;101247.23;;;20.12;100.00
44663;BME280;30381;52.754;18.258;2023-04-20T11:24:42;101246.32;;;20.18;99.92
44663;BME280;30381;52.754;18.258;2023-04-20T11:27:53;101248.04;;;20.36;100.00
44663;BME280;30381;52.754;18.258;2023-04-20T11:30:43;101249.08;;;20.51;100.00
44663;BME280;30381;52.754;18.258;2023-04-20T11:33:51;101240.33;;;20.66;99.88
44663;BME280;30381;52.754;18.258;2023-04-20T11:40:25;101251.75;;;20.52;98.32
44663;BME280;30381;52.754;18.258;2023-04-20T11:43:53;101251.48;;;20.38;99.52
44663;BME280;30381;52.754;18.258;2023-04-20T11:47:01;101255.44;;;20.32;99.31
44663;BME280;30381;52.754;18.258;2023-04-20T11:49:58;101257.45;;;20.18;98.01
44663;BME280;30381;52.754;18.258;2023-04-20T11:52:27;101261.90;;;19.92;96.09
44663;BME280;30381;52.754;18.258;2023-04-20T11:54:53;101263.35;;;19.85;96.87
44663;BME280;30381;52.754;18.258;2023-04-20T11:57:33;101264.40;;;19.84;96.30
44663;BME280;30381;52.754;18.258;2023-04-20T12:00:19;101260.61;;;19.84;95.14
44663;BME280;30381;52.754;18.258;2023-04-20T12:03:32;101254.67;;;19.73;95.08
44663;BME280;30381;52.754;18.258;2023-04-20T12:06:07;101248.61;;;19.91;96.44
44663;BME280;30381;52.754;18.258;2023-04-20T12:09:02;101243.23;;;20.03;95.65
44663;BME280;30381;52.754;18.258;2023-04-20T12:12:23;101241.32;;;20.19;91.38
44663;BME280;30381;52.754;18.258;2023-04-20T12:15:17;101243.73;;;20.27;93.80
44663;BME280;30381;52.754;18.258;2023-04-20T12:17:48;101233.98;;;20.57;93.84
44663;BME280;30381;52.754;18.258;2023-04-20T12:20:37;101233.02;;;20.84;94.26
44663;BME280;30381;52.754;18.258;2023-04-20T12:23:04;101231.55;;;21.00;91.61
44663;BME280;30381;52.754;18.258;2023-04-20T12:26:49;101230.49;;;21.23;90.73
44663;BME280;30381;52.754;18.258;2023-04-20T12:29:45;101222.24;;;21.37;87.68
44663;BME280;30381;52.754;18.258;2023-04-20T13:10:30;101191.52;;;21.06;84.42
44663;BME280;30381;52.754;18.258;2023-04-20T13:13:21;101192.13;;;21.11;83.81
44663;BME280;30381;52.754;18.258;2023-04-20T13:15:52;101201.10;;;21.15;83.62
44663;BME280;30381;52.754;18.258;2023-04-20T13:18:27;101202.96;;;21.04;83.73
44663;BME280;30381;52.754;18.258;2023-04-20T13:21:09;101195.52;;;20.95;83.98
44663;BME280;30381;52.754;18.258;2023-04-20T13:23:39;101199.36;;;20.96;84.90
44663;BME280;30381;52.754;18.258;2023-04-20T13:26:15;101199.75;;;20.91;80.88
44663;BME280;30381;52.754;18.258;2023-04-20T13:28:46;101196.54;;;20.77;81.62
44663;BME280;30381;52.754;18.258;2023-04-20T13:31:15;101191.22;;;20.64;81.27
44663;BME280;30381;52.754;18.258;2023-04-20T13:33:56;101194.34;;;20.47;80.79
44663;BME280;30381;52.754;18.258;2023-04-20T13:36:37;101196.25;;;20.35;80.05
44663;BME280;30381;52.754;18.258;2023-04-20T13:39:09;101196.98;;;20.22;79.20
44663;BME280;30381;52.754;18.258;2023-04-20T13:41:42;101200.31;;;19.99;78.37
44663;BME280;30381;52.754;18.258;2023-04-20T13:44:23;101200.92;;;19.90;79.77
44663;BME280;30381;52.754;18.258;2023-04-20T13:47:00;101200.79;;;19.96;78.58
44663;BME280;30381;52.754;18.258;2023-04-20T13:49:49;101198.11;;;20.01;77.91
44663;BME280;30381;52.754;18.258;2023-04-20T13:52:17;101200.96;;;20.08;78.25
44663;BME280;30381;52.754;18.258;2023-04-20T13:54:45;101201.01;;;20.18;77.67
44663;BME280;30381;52.754;18.258;2023-04-20T13:57:25;101196.19;;;20.26;76.41
44663;BME280;30381;52.754;18.258;2023-04-20T14:00:04;101191.66;;;20.33;75.91
44663;BME280;30381;52.754;18.258;2023-04-20T14:02:57;101188.75;;;20.45;75.96
44663;BME280;30381;52.754;18.258;2023-04-20T14:05:44;101187.76;;;20.58;75.39
44663;BME280;30381;52.754;18.258;2023-04-20T14:11:24;101188.89;;;21.04;75.10
44663;BME280;30381;52.754;18.258;2023-04-20T14:14:23;101190.98;;;21.31;75.74
44663;BME280;30381;52.754;18.258;2023-04-20T14:17:13;101187.26;;;21.55;73.96
44663;BME280;30381;52.754;18.258;2023-04-20T14:20:05;101188.56;;;21.72;73.96
44663;BME280;30381;52.754;18.258;2023-04-20T14:22:47;101186.20;;;21.68;73.31
44663;BME280;30381;52.754;18.258;2023-04-20T14:26:09;101187.10;;;21.42;72.79
44663;BME280;30381;52.754;18.258;2023-04-20T14:29:18;101189.84;;;21.03;71.80
44663;BME280;30381;52.754;18.258;2023-04-20T14:32:19;101186.04;;;20.60;71.33
44663;BME280;30381;52.754;18.258;2023-04-20T14:35:09;101194.68;;;20.28;71.50
44663;BME280;30381;52.754;18.258;2023-04-20T14:38:06;101193.34;;;20.00;71.78
44663;BME280;30381;52.754;18.258;2023-04-20T14:40:55;101195.11;;;19.78;69.62
44663;BME280;30381;52.754;18.258;2023-04-20T14:46:29;101192.78;;;19.30;68.51
44663;BME280;30381;52.754;18.258;2023-04-20T14:49:19;101200.66;;;19.22;69.15
44663;BME280;30381;52.754;18.258;2023-04-20T14:52:13;101191.85;;;19.17;69.40
44663;BME280;30381;52.754;18.258;2023-04-20T14:55:11;101194.98;;;19.15;70.25
44663;BME280;30381;52.754;18.258;2023-04-20T16:14:28;101169.00;;;18.26;69.91
44663;BME280;30381;52.754;18.258;2023-04-20T17:29:27;101189.63;;;16.59;70.91
44663;BME280;30381;52.754;18.258;2023-04-20T17:32:32;101194.20;;;16.45;71.81
44663;BME280;30381;52.754;18.258;2023-04-20T17:52:41;101209.34;;;15.49;75.30
44663;BME280;30381;52.754;18.258;2023-04-20T17:56:25;101211.45;;;15.28;75.77
44663;BME280;30381;52.754;18.258;2023-04-20T18:03:40;101217.15;;;14.88;76.75
44663;BME280;30381;52.754;18.258;2023-04-20T19:47:53;101259.02;;;11.77;86.23
44663;BME280;30381;52.754;18.258;2023-04-20T19:57:49;101255.30;;;11.55;87.60
44663;BME280;30381;52.754;18.258;2023-04-20T20:01:12;101263.44;;;11.49;88.34
44663;BME280;30381;52.754;18.258;2023-04-20T20:11:06;101268.13;;;11.30;89.99
